Airfield :
LOGIN :

Register | Disclaimer

   EN    FR    IT 

 










Legend :    VFR   Marginal VFR   IFR   Intensive IFR   Very Intensive IFR
Visi :
Ceiling :
>= 8 km
>= 3000ft
5 to 8 km
1000 to 3000 ft
1500m to 5 km
500 to 1000 ft
800 to 1500m
200 to 500 ft
< 800m
< 200 ft
Symbols :   Thunderstorms  Fog  Heavy snow  Heavy precipitations  Wind > 20 kt
SIGMETs :     Misc.  Thunderstorms  Icing  Turbulence  Mountain Waves  Volcanic Ashes







- Airport Elevation : 124 ft
- IATA code : NHT
- Download approach charts


EGWU - RAF Northolt

CURRENT METAR :
  • 260750Z 25010KT 9999 SCT016 BKN060 17/13 Q1014 WHT TEMPO FEW016 BKN040 BLU

EXPIRED METARs :
  • 260650Z 25008KT 9999 FEW012 BKN060 15/12 Q1015 TEMPO SCT012
  • 260620Z 26008KT 9999 BKN011 BKN060 14/12 Q1014 GRN BECMG FEW010 BLU
  • 260550Z 26008KT 9999 FEW010 BKN060 14/12 Q1015 TEMPO SCT010

TAF TAF EGWU
Valid from the 26 at 09:00 until the 27 at 03:00 UTC


260721Z 2609/2703 26012KT 9999 FEW014 BKN040
BECMG 2609/2611 BKN018
TEMPO 2610/2617 7000 -RADZ
PROB30
TEMPO 2611/2615 4000 RA BKN012
BECMG 2615/2618 SCT026
No reported NOTAMs for that airfield.



MET'MAP, your aeronautical weather chart ! - Copyright ORBIFLY December 2007 - Disclaimer

ORBIFLY MET'MAP TEAM :

Programming & Development : Alexandra Zaïnal
Concept & Development : Baudouin d'Aumeries
Co-Development & Prog : Marc-Olivier Méhu
Technical & hardware support : Manuel Goepfert

Contact : metmap@orbifly.com




SOURCES & CREDITS :

   NOAA